Terminal Aerodrome Forecast
Issued by NWS Wilmington, OH

Current Version | Previous Version | Graphics & Text | Print | Product List | Glossary On
Versions: 1 2 3 4 5 6 7 8 9 10 11 12 13 14 15 16
000
FTUS41 KILN 231100
TAFILN
TAF
KILN 231131Z 2312/2412 33008KT P6SM SKC
     FM231600 34009KT P6SM SCT040
     FM240000 04004KT P6SM BKN200
     FM240600 08004KT P6SM OVC120=

USA.gov is the U.S. government's official web portal to all federal, state and local government web resources and services.